createdAt,value
2023-04-27T00:27:24.970Z,18
2023-04-27T00:57:24.843Z,20
2023-04-27T01:27:24.693Z,16
2023-04-27T01:57:24.752Z,14
2023-04-27T02:27:24.830Z,14
2023-04-27T03:27:25.271Z,12
2023-04-27T03:57:26.687Z,18
2023-04-27T04:27:24.529Z,10
2023-04-27T04:57:24.647Z,22
2023-04-27T05:27:24.519Z,12
2023-04-27T05:57:24.393Z,12
2023-04-27T06:27:24.910Z,16
2023-04-27T06:57:24.207Z,12
2023-04-27T07:27:26.594Z,12
2023-04-27T07:57:24.294Z,24
2023-04-27T08:27:24.545Z,16
2023-04-27T08:57:24.029Z,12
2023-04-27T09:27:24.270Z,8
2023-04-27T09:57:23.836Z,10
2023-04-27T10:27:24.060Z,8
2023-04-27T10:57:24.250Z,10
2023-04-27T11:27:23.889Z,12
2023-04-27T11:57:23.734Z,10
2023-04-27T12:27:23.926Z,8
2023-04-27T12:57:23.499Z,8
2023-04-27T13:27:23.743Z,10
2023-04-27T13:57:23.953Z,8
2023-04-27T14:27:23.843Z,12
2023-04-27T14:57:23.692Z,8
2023-04-27T15:27:23.508Z,14
2023-04-27T15:57:23.033Z,6
2023-04-27T16:27:23.685Z,12
2023-04-27T16:57:23.294Z,12
2023-04-27T17:27:23.526Z,14
2023-04-27T17:57:23.356Z,6
2023-04-27T18:27:23.200Z,10
2023-04-27T18:57:23.169Z,10
2023-04-27T19:27:23.070Z,8
2023-04-27T19:57:24.040Z,10
2023-04-27T20:27:23.140Z,26
2023-04-27T21:27:22.786Z,32
2023-04-27T21:57:22.780Z,38
2023-04-27T22:27:23.653Z,52
2023-04-27T22:57:22.754Z,22
2023-04-27T23:27:22.516Z,14
2023-04-27T23:57:22.859Z,18
